Time;durP1;ratioP1;P1;durP2;ratioP2;P2;SDS_P1;SDS_P2;PMS_P1;PMS_P2;Temp;Humidity;BMP_temperature;BMP_pressure;BME280_temperature;BME280_humidity;BME280_pressure;Samples;Min_cycle;Max_cycle;Signal;HPM_P1;HPM_P2
2023/03/02 07:25:28;;;;;;;43.07;16.67;;;;;;;-2.79;100.00;99137.75;5106813;27;20366;-77
2023/03/02 07:27:55;;;;;;;44.23;16.57;;;;;;;-2.51;100.00;99168.72;5109572;28;20075;-76
2023/03/02 07:30:21;;;;;;;40.50;16.43;;;;;;;-2.35;100.00;99167.69;5105983;28;20391;-77
2023/03/02 07:32:48;;;;;;;54.87;17.27;;;;;;;-2.10;100.00;99179.38;5103854;28;20040;-77
2023/03/02 07:35:15;;;;;;;39.13;16.47;;;;;;;-2.15;100.00;99139.72;5097644;28;20046;-77
2023/03/02 07:37:42;;;;;;;37.40;17.17;;;;;;;-1.88;100.00;99163.63;5107255;28;20059;-77
2023/03/02 07:40:10;;;;;;;42.00;16.70;;;;;;;-1.79;100.00;99157.66;5109922;28;20081;-77
2023/03/02 07:42:38;;;;;;;36.50;17.63;;;;;;;-1.54;100.00;99163.91;5107345;28;20309;-77
2023/03/02 07:45:06;;;;;;;41.42;16.67;;;;;;;-1.48;100.00;99139.47;5100744;28;20045;-77
2023/03/02 07:47:33;;;;;;;38.45;17.35;;;;;;;-1.28;100.00;99158.53;5105296;28;20048;-77
2023/03/02 07:49:59;;;;;;;39.67;17.17;;;;;;;-1.15;100.00;99162.03;5108181;28;20478;-77
2023/03/02 07:52:28;;;;;;;39.28;17.45;;;;;;;-1.13;100.00;99140.59;5106511;28;20494;-77
2023/03/02 07:54:54;;;;;;;41.95;17.65;;;;;;;-0.87;100.00;99162.72;5108009;28;20052;-77
2023/03/02 07:57:21;;;;;;;40.22;16.80;;;;;;;-0.86;100.00;99152.88;5109273;28;20058;-77
2023/03/02 07:59:49;;;;;;;38.63;17.05;;;;;;;-0.85;100.00;99150.09;5106958;28;20047;-77
2023/03/02 08:02:19;;;;;;;29.90;12.23;;;;;;;-0.76;100.00;99145.91;5107646;28;20644;-77
2023/03/02 08:04:45;;;;;;;40.25;18.85;;;;;;;-0.57;100.00;99153.41;5107196;28;20055;-77
2023/03/02 08:07:12;;;;;;;34.67;15.07;;;;;;;-0.50;100.00;99159.16;5107527;28;20048;-77
2023/03/02 08:09:39;;;;;;;29.17;14.27;;;;;;;-0.50;100.00;99129.75;5107524;28;20290;-77
2023/03/02 08:12:05;;;;;;;26.15;12.07;;;;;;;-0.46;100.00;99134.75;5108133;28;20056;-77
2023/03/02 08:14:32;;;;;;;43.60;17.02;;;;;;;-0.17;100.00;99169.09;5106912;28;20063;-77
2023/03/02 08:17:01;;;;;;;33.97;13.82;;;;;;;-0.03;100.00;99178.72;5105404;28;20380;-77
2023/03/02 08:19:27;;;;;;;82.38;35.42;;;;;;;-0.14;100.00;99146.66;5106892;28;20128;-77
2023/03/02 08:21:54;;;;;;;40.15;19.08;;;;;;;0.16;100.00;99175.50;5106264;28;20051;-77
2023/03/02 08:24:20;;;;;;;45.72;17.73;;;;;;;0.07;100.00;99144.16;5106352;28;20048;-77
2023/03/02 08:26:47;;;;;;;39.58;16.13;;;;;;;0.22;100.00;99158.16;5107383;28;20052;-77
2023/03/02 08:29:13;;;;;;;41.35;17.23;;;;;;;0.35;100.00;99165.09;5106146;28;20044;-77
2023/03/02 08:31:40;;;;;;;44.75;17.73;;;;;;;0.35;100.00;99132.16;5105236;28;20048;-77
2023/03/02 08:34:08;;;;;;;38.55;16.67;;;;;;;0.49;100.00;99133.75;5106676;28;20044;-77
2023/03/02 08:36:34;;;;;;;34.28;16.48;;;;;;;0.67;100.00;99136.78;5092736;28;20061;-77
2023/03/02 08:39:01;;;;;;;35.85;15.70;;;;;;;0.67;100.00;99144.81;5087443;28;20059;-77
2023/03/02 08:41:28;;;;;;;34.17;15.38;;;;;;;0.82;100.00;99142.72;5092737;28;20058;-77
2023/03/02 08:43:55;;;;;;;33.80;14.48;;;;;;;0.94;100.00;99140.88;5089153;28;20153;-77
2023/03/02 08:46:22;;;;;;;33.17;15.57;;;;;;;0.96;100.00;99134.41;5092433;28;20498;-77
2023/03/02 08:48:50;;;;;;;34.90;15.95;;;;;;;1.19;100.00;99151.31;5093450;28;20498;-77
2023/03/02 08:51:21;;;;;;;30.33;15.70;;;;;;;1.15;100.00;99133.78;5093056;28;20434;-77
2023/03/02 08:53:50;;;;;;;32.40;15.00;;;;;;;1.17;100.00;99120.25;5094827;28;20044;-77
2023/03/02 08:56:19;;;;;;;32.47;14.85;;;;;;;1.20;100.00;99112.81;5082580;28;20470;-77
2023/03/02 08:58:46;;;;;;;31.08;15.40;;;;;;;1.44;100.00;99127.84;5092825;28;20055;-77
2023/03/02 09:01:17;;;;;;;34.60;15.25;;;;;;;1.40;100.00;99131.75;5092085;28;20054;-77
2023/03/02 09:03:43;;;;;;;33.53;14.20;;;;;;;1.56;100.00;99124.13;5092202;28;20261;-77
2023/03/02 09:06:10;;;;;;;29.83;13.65;;;;;;;1.58;100.00;99099.88;5092255;28;20060;-77
2023/03/02 09:08:38;;;;;;;37.22;15.13;;;;;;;1.80;100.00;99112.31;5092022;28;20066;-77
2023/03/02 09:11:05;;;;;;;38.83;16.02;;;;;;;1.88;99.93;99090.22;5090110;28;20384;-77
2023/03/02 09:13:32;;;;;;;28.73;13.02;;;;;;;2.05;98.47;99107.56;5081837;28;20040;-78
2023/03/02 09:15:59;;;;;;;27.90;13.32;;;;;;;2.11;98.53;99099.84;5095577;28;20046;-78
2023/03/02 09:18:27;;;;;;;31.23;14.52;;;;;;;2.14;97.38;99114.81;5074552;28;20048;-78
2023/03/02 09:20:55;;;;;;;29.45;13.73;;;;;;;2.22;96.98;99096.22;5074537;28;20070;-78
2023/03/02 09:23:22;;;;;;;39.47;15.00;;;;;;;2.39;96.52;99124.25;5091693;28;20059;-79
2023/03/02 09:25:50;;;;;;;32.75;15.70;;;;;;;2.25;96.46;99092.41;5082226;28;20135;-79
2023/03/02 09:28:17;;;;;;;36.63;14.70;;;;;;;2.31;95.75;99102.63;5071606;28;20589;-79
2023/03/02 09:30:48;;;;;;;30.58;14.80;;;;;;;2.35;95.02;99101.38;5072542;28;20045;-79
2023/03/02 09:33:15;;;;;;;32.53;14.85;;;;;;;2.44;95.72;99100.56;5087372;28;20052;-79
2023/03/02 09:35:41;;;;;;;37.50;15.35;;;;;;;2.53;95.49;99087.31;5093093;28;20048;-81
2023/03/02 09:38:11;;;;;;;32.17;13.77;;;;;;;2.75;95.42;99107.75;5094636;28;20048;-78
2023/03/02 09:40:41;;;;;;;;;;;;;;;2.97;94.24;99117.41;5076168;28;20227;-78
2023/03/02 09:43:22;;;;;;;32.55;14.02;;;;;;;3.11;92.84;99108.13;5088189;28;19927;-79
2023/03/02 09:46:04;;;;;;;31.38;14.38;;;;;;;3.23;92.22;99114.22;5085583;28;20502;-78
2023/03/02 09:48:42;;;;;;;26.63;11.75;;;;;;;3.17;91.17;99097.66;5077795;28;20662;-79
2023/03/02 09:51:24;;;;;;;33.42;14.18;;;;;;;3.31;91.26;99104.47;5091018;28;20430;-79
2023/03/02 09:53:55;;;;;;;32.38;12.88;;;;;;;3.51;91.43;99104.50;5091748;28;20056;-79
2023/03/02 09:56:22;;;;;;;31.08;12.07;;;;;;;3.67;88.14;99095.84;5086866;28;20051;-79
2023/03/02 09:58:56;;;;;;;28.88;12.07;;;;;;;3.72;88.26;99102.50;5086015;28;20044;-78
2023/03/02 10:01:34;;;;;;;31.15;12.65;;;;;;;4.12;85.15;99118.56;5091950;28;20048;-78
2023/03/02 10:04:13;;;;;;;22.10;11.15;;;;;;;4.23;84.66;99113.88;5092534;28;20048;-78
2023/03/02 10:06:40;;;;;;;23.40;9.00;;;;;;;4.44;84.37;99112.81;5096212;28;20402;-78
2023/03/02 10:09:08;;;;;;;24.00;11.95;;;;;;;4.55;85.44;99091.09;5097922;28;20410;-78
2023/03/02 10:11:47;;;;;;;24.98;12.00;;;;;;;4.58;83.23;99085.41;5098285;28;20044;-78
2023/03/02 10:14:23;;;;;;;26.63;11.07;;;;;;;4.81;82.16;99113.81;5089633;28;20506;-78
2023/03/02 10:16:55;;;;;;;32.65;10.43;;;;;;;4.93;81.66;99113.44;5073772;28;20052;-78
2023/03/02 10:19:25;;;;;;;20.60;9.80;;;;;;;4.96;82.05;99099.69;5079310;28;20126;-78
2023/03/02 10:21:58;;;;;;;21.10;10.82;;;;;;;4.95;79.68;99108.78;5073343;28;20048;-78
2023/03/02 10:24:33;;;;;;;23.95;10.75;;;;;;;5.10;79.30;99122.59;5077820;28;20036;-78
2023/03/02 10:27:16;;;;;;;22.35;11.13;;;;;;;5.11;79.56;99105.41;5087013;28;20051;-78
2023/03/02 10:29:50;;;;;;;18.33;9.88;;;;;;;5.22;79.88;99082.78;5080283;28;20547;-78
2023/03/02 10:32:22;;;;;;;24.40;9.13;;;;;;;5.45;78.53;99104.75;5078445;28;20057;-78
2023/03/02 10:34:50;;;;;;;18.30;8.98;;;;;;;5.42;77.01;99096.13;5069164;28;20054;-78
2023/03/02 10:37:20;;;;;;;22.45;11.68;;;;;;;5.48;78.54;99095.53;5075530;28;20047;-78
2023/03/02 10:39:47;;;;;;;26.20;11.00;;;;;;;5.58;77.51;99087.34;5087368;28;20131;-78
2023/03/02 10:42:16;;;;;;;21.48;10.88;;;;;;;5.53;76.71;99084.28;5078137;28;20055;-78
2023/03/02 10:44:48;;;;;;;22.83;10.32;;;;;;;5.79;75.66;99103.22;5080290;28;20130;-78
2023/03/02 10:47:23;;;;;;;19.45;9.68;;;;;;;5.83;75.53;99096.50;5086727;28;20051;-78
2023/03/02 10:49:51;;;;;;;22.95;9.98;;;;;;;5.80;75.92;99086.03;5080221;28;20417;-78
2023/03/02 10:52:19;;;;;;;22.67;10.23;;;;;;;5.96;74.69;99090.69;5076337;28;20056;-78
2023/03/02 10:54:47;;;;;;;22.30;10.43;;;;;;;6.15;75.71;99098.63;5082854;28;20066;-78
2023/03/02 10:57:29;;;;;;;19.38;9.70;;;;;;;6.12;74.13;99080.03;5083997;28;20047;-78
2023/03/02 11:00:02;;;;;;;22.20;9.82;;;;;;;6.17;74.55;99060.66;5088658;28;20051;-78
2023/03/02 11:02:29;;;;;;;21.67;10.63;;;;;;;6.35;72.67;99080.38;5085788;28;20070;-79
2023/03/02 11:04:58;;;;;;;22.48;11.02;;;;;;;6.16;72.87;99050.91;5082175;28;20396;-78
2023/03/02 11:07:27;;;;;;;21.27;9.65;;;;;;;6.28;73.28;99055.00;5078607;28;20060;-78
2023/03/02 11:10:02;;;;;;;17.73;9.32;;;;;;;6.40;71.00;99089.81;5077935;28;20051;-78
2023/03/02 11:12:30;;;;;;;22.40;11.15;;;;;;;6.43;71.87;99084.97;5067667;28;20091;-78
2023/03/02 11:15:24;;;;;;;22.08;10.63;;;;;;;6.23;73.23;99060.03;5082626;28;20160;-78
2023/03/02 11:17:55;;;;;;;21.85;10.30;;;;;;;6.35;72.37;99063.31;5087081;28;20101;-78
2023/03/02 11:20:25;;;;;;;21.48;10.50;;;;;;;6.46;71.65;99062.16;5068521;28;20064;-78
2023/03/02 11:23:05;;;;;;;23.05;10.30;;;;;;;6.68;72.21;99066.16;5082222;28;20383;-78
2023/03/02 11:25:36;;;;;;;18.52;9.45;;;;;;;6.73;69.84;99053.88;5089841;28;20044;-79
2023/03/02 11:28:09;;;;;;;19.70;10.85;;;;;;;6.75;70.55;99078.03;5080248;28;20040;-78
2023/03/02 11:30:45;;;;;;;24.83;11.40;;;;;;;6.81;70.75;99057.63;5087283;28;20059;-79
2023/03/02 11:33:17;;;;;;;20.35;10.27;;;;;;;6.99;69.27;99061.06;5087475;28;20495;-78
2023/03/02 11:35:51;;;;;;;27.60;10.98;;;;;;;7.03;70.77;99057.00;5087555;28;20079;-78
2023/03/02 11:38:24;;;;;;;16.35;8.90;;;;;;;7.13;69.39;99053.31;5084336;28;20044;-78
2023/03/02 11:40:55;;;;;;;16.23;8.52;;;;;;;7.31;70.93;99064.00;5071280;28;20057;-79
2023/03/02 11:43:22;;;;;;;23.75;10.02;;;;;;;7.43;67.87;99070.78;5076815;28;20048;-79
2023/03/02 11:45:56;;;;;;;19.92;11.18;;;;;;;7.35;67.84;99054.56;5086362;28;20048;-79
2023/03/02 11:48:29;;;;;;;18.65;10.50;;;;;;;7.38;67.24;99049.63;5079943;28;20052;-78
2023/03/02 11:50:58;;;;;;;18.30;10.02;;;;;;;7.40;68.87;99034.09;5084501;28;20048;-79
2023/03/02 11:53:30;;;;;;;22.00;10.77;;;;;;;7.55;67.24;99057.78;5088363;28;20383;-78
2023/03/02 11:55:56;;;;;;;16.77;9.43;;;;;;;7.53;66.86;99051.69;5087788;28;20071;-79
2023/03/02 11:58:25;;;;;;;26.77;11.68;;;;;;;7.40;68.89;99030.53;5088807;28;20048;-78
2023/03/02 12:00:54;;;;;;;23.83;11.40;;;;;;;7.57;69.06;99031.38;5086746;28;20044;-78
2023/03/02 12:03:35;;;;;;;23.63;11.57;;;;;;;7.77;68.62;99050.84;5088388;28;20055;-79
2023/03/02 12:06:05;;;;;;;23.60;13.13;;;;;;;7.74;68.03;99029.53;5080797;28;20051;-78
2023/03/02 12:08:35;;;;;;;25.77;11.55;;;;;;;7.89;67.08;99035.09;5090070;28;20074;-78
2023/03/02 12:11:05;;;;;;;23.80;11.50;;;;;;;7.79;68.17;99017.16;5090021;28;20058;-79
2023/03/02 12:13:34;;;;;;;23.17;11.38;;;;;;;7.94;67.92;99022.75;5091088;28;20048;-78
2023/03/02 12:16:02;;;;;;;31.33;12.63;;;;;;;8.06;67.85;99030.53;5090710;28;20080;-79
2023/03/02 12:18:46;;;;;;;27.00;12.05;;;;;;;7.92;65.88;99022.06;5091378;28;20040;-78
2023/03/02 12:21:16;;;;;;;21.58;10.88;;;;;;;7.98;65.79;99017.84;5089709;28;20048;-78
2023/03/02 12:23:57;;;;;;;23.98;10.95;;;;;;;8.21;66.91;99025.25;5090490;28;20048;-79
2023/03/02 12:26:28;;;;;;;18.35;9.95;;;;;;;8.09;65.98;99020.19;5079785;28;20052;-79
2023/03/02 12:29:01;;;;;;;22.83;10.20;;;;;;;8.24;65.49;99036.56;5086721;28;20412;-79
2023/03/02 12:31:41;;;;;;;30.58;11.63;;;;;;;8.19;66.02;99003.75;5090309;28;20044;-79
2023/03/02 12:34:34;;;;;;;23.55;11.73;;;;;;;8.40;65.23;99014.00;5091198;28;20135;-79
2023/03/02 12:37:05;;;;;;;18.35;8.60;;;;;;;8.45;64.67;99010.81;5093388;28;20086;-79
2023/03/02 12:39:49;;;;;;;21.48;11.20;;;;;;;8.67;65.07;99017.31;5091979;28;20052;-79
2023/03/02 12:42:47;;;;;;;23.70;11.07;;;;;;;8.68;65.73;98997.31;5088617;28;20056;-78
2023/03/02 12:45:24;;;;;;;19.15;10.75;;;;;;;8.78;64.14;99019.63;5089020;28;20044;-79
2023/03/02 12:48:01;;;;;;;23.60;11.18;;;;;;;8.71;64.94;99004.25;5091536;28;20224;-79
2023/03/02 12:50:30;;;;;;;21.05;10.88;;;;;;;8.71;64.28;99005.09;5084899;28;20062;-79
2023/03/02 12:52:58;;;;;;;23.08;11.02;;;;;;;8.68;63.92;99002.75;5070551;28;20071;-79
2023/03/02 12:55:25;;;;;;;22.27;11.52;;;;;;;8.88;63.69;99015.84;5076567;28;20040;-79
2023/03/02 12:57:54;;;;;;;26.15;11.95;;;;;;;9.03;64.59;99001.38;5083288;28;20118;-79
2023/03/02 13:00:24;;;;;;;27.25;11.00;;;;;;;9.10;63.15;98984.38;5090316;28;20059;-81
2023/03/02 13:02:53;;;;;;;24.70;10.02;;;;;;;9.20;63.09;98993.97;5091004;28;20206;-80
2023/03/02 13:05:22;;;;;;;27.92;10.73;;;;;;;9.32;63.05;99012.53;5091383;28;20048;-80
2023/03/02 13:07:58;;;;;;;20.17;10.00;;;;;;;9.12;62.68;98985.91;5091223;28;20250;-80
2023/03/02 13:10:29;;;;;;;20.23;10.45;;;;;;;9.23;62.10;99005.47;5089431;28;20478;-79
2023/03/02 13:12:56;;;;;;;19.48;11.63;;;;;;;9.27;62.39;98985.09;5082300;28;20056;-80
2023/03/02 13:15:24;;;;;;;17.77;10.13;;;;;;;9.39;62.57;99008.06;5074301;28;20052;-80
2023/03/02 13:17:58;;;;;;;23.77;10.25;;;;;;;9.30;62.24;99004.56;5090908;28;20082;-80
2023/03/02 13:20:27;;;;;;;25.63;10.88;;;;;;;9.46;62.88;98997.34;5089609;28;20514;-80
2023/03/02 13:22:54;;;;;;;22.27;10.38;;;;;;;9.47;62.62;98983.59;5090073;28;20494;-80
2023/03/02 13:25:29;;;;;;;23.63;10.55;;;;;;;9.67;62.54;98991.25;5089708;28;20059;-80
2023/03/02 13:27:59;;;;;;;21.38;9.85;;;;;;;9.69;60.97;99003.56;5083506;28;20051;-79
2023/03/02 13:30:33;;;;;;;18.52;8.32;;;;;;;9.71;61.67;98973.53;5089271;28;20482;-80
2023/03/02 13:33:05;;;;;;;16.83;8.93;;;;;;;9.76;60.88;98979.28;5076120;28;20484;-80
2023/03/02 13:35:36;;;;;;;19.02;10.13;;;;;;;10.05;62.15;98992.03;5070487;28;20393;-80
2023/03/02 13:38:04;;;;;;;27.15;12.68;;;;;;;9.86;60.81;98976.28;5070667;28;20060;-80
2023/03/02 13:40:40;;;;;;;20.40;11.48;;;;;;;9.78;61.68;98996.22;5087768;28;20699;-80
2023/03/02 13:43:21;;;;;;;19.63;10.65;;;;;;;9.89;61.31;98982.19;5089716;28;20087;-80
2023/03/02 13:45:53;;;;;;;21.75;11.10;;;;;;;9.91;61.61;98957.56;5091073;28;20048;-80
2023/03/02 13:48:21;;;;;;;25.40;10.90;;;;;;;10.07;61.33;98962.84;5074707;28;20471;-80
2023/03/02 13:50:55;;;;;;;17.67;10.07;;;;;;;10.12;60.10;98945.97;5070021;28;20059;-80
2023/03/02 13:53:23;;;;;;;27.20;10.32;;;;;;;9.99;60.17;98970.22;5069272;28;20539;-80
2023/03/02 13:55:51;;;;;;;19.70;10.85;;;;;;;9.91;60.62;98947.53;5089943;28;20143;-80
2023/03/02 13:58:19;;;;;;;24.70;11.43;;;;;;;10.01;61.19;98947.28;5090293;28;20082;-79
2023/03/02 14:00:46;;;;;;;24.55;10.57;;;;;;;9.88;61.57;98931.63;5090252;28;20047;-80
2023/03/02 14:03:24;;;;;;;19.10;10.35;;;;;;;10.10;60.41;98937.16;5087140;28;20055;-79
2023/03/02 14:05:51;;;;;;;17.45;10.23;;;;;;;10.30;59.53;98959.19;5073461;28;20036;-80
2023/03/02 14:08:18;;;;;;;19.52;9.63;;;;;;;10.42;60.18;98968.56;5084624;28;20404;-80
2023/03/02 14:10:45;;;;;;;19.23;9.60;;;;;;;10.37;60.14;98934.84;5089524;28;20055;-80
2023/03/02 14:13:16;;;;;;;20.40;11.07;;;;;;;10.40;60.49;98939.88;5089159;28;20560;-80
2023/03/02 14:15:49;;;;;;;18.88;10.38;;;;;;;10.39;59.60;98938.22;5089552;28;20131;-79
2023/03/02 14:18:28;;;;;;;17.27;8.80;;;;;;;10.14;60.67;98933.03;5088997;28;20540;-80
2023/03/02 14:20:56;;;;;;;19.40;9.52;;;;;;;10.32;59.88;98950.84;5088069;28;20044;-80
2023/03/02 14:23:22;;;;;;;26.92;10.63;;;;;;;10.29;60.52;98943.91;5085921;28;20089;-80
2023/03/02 14:25:51;;;;;;;16.80;9.27;;;;;;;10.15;60.41;98933.91;5069103;28;20051;-80
2023/03/02 14:28:24;;;;;;;19.70;10.07;;;;;;;10.22;60.36;98941.09;5068950;28;20044;-80
2023/03/02 14:30:54;;;;;;;19.48;9.75;;;;;;;10.18;60.62;98930.81;5076334;28;20051;-80
2023/03/02 14:33:21;;;;;;;24.02;11.35;;;;;;;10.34;60.54;98956.94;5080014;28;20055;-80
2023/03/02 14:35:52;;;;;;;21.52;10.48;;;;;;;10.47;60.70;98961.72;5081264;28;20044;-80
2023/03/02 14:38:19;;;;;;;21.70;10.90;;;;;;;10.32;60.45;98923.66;5075429;28;20171;-81
2023/03/02 14:40:45;;;;;;;19.40;9.43;;;;;;;10.14;60.65;98918.63;5089573;28;20054;-80
2023/03/02 14:43:12;;;;;;;22.08;10.30;;;;;;;10.20;60.88;98950.47;5088478;28;20048;-80
2023/03/02 14:45:38;;;;;;;29.65;10.50;;;;;;;10.09;60.97;98930.88;5086891;28;20064;-79
2023/03/02 14:48:05;;;;;;;19.17;10.05;;;;;;;10.05;61.47;98943.16;5088613;28;20048;-78
2023/03/02 14:50:36;;;;;;;23.63;10.38;;;;;;;10.14;61.23;98949.34;5088146;28;20418;-78
2023/03/02 14:53:09;;;;;;;21.55;11.05;;;;;;;10.05;60.96;98924.13;5082911;28;20395;-79
2023/03/02 14:55:36;;;;;;;21.50;10.50;;;;;;;10.42;60.46;98957.69;5086696;28;20479;-78
2023/03/02 14:58:10;;;;;;;18.13;10.20;;;;;;;10.55;60.14;98946.16;5079017;28;20085;-79
2023/03/02 15:00:36;;;;;;;19.83;8.43;;;;;;;10.61;58.75;98912.78;5078436;28;20384;-79
2023/03/02 15:03:03;;;;;;;19.33;9.93;;;;;;;10.49;60.27;98932.47;5087928;28;20384;-79
2023/03/02 15:05:30;;;;;;;18.80;10.52;;;;;;;10.55;60.30;98939.88;5069743;28;20048;-79
2023/03/02 15:07:57;;;;;;;23.95;9.70;;;;;;;10.18;60.64;98909.06;5067805;28;20045;-81
2023/03/02 15:10:25;;;;;;;21.13;10.13;;;;;;;10.23;60.51;98928.34;5068917;28;20052;-79
2023/03/02 15:12:52;;;;;;;21.73;10.55;;;;;;;10.12;60.73;98940.53;5067728;28;20507;-79
2023/03/02 15:15:18;;;;;;;25.88;10.43;;;;;;;10.00;62.27;98931.19;5086903;28;20474;-79
2023/03/02 15:17:45;;;;;;;17.63;8.82;;;;;;;10.04;61.69;98946.06;5084715;28;20040;-80
2023/03/02 15:20:14;;;;;;;18.63;10.55;;;;;;;10.12;61.93;98962.28;5088530;28;20051;-79
2023/03/02 15:22:41;;;;;;;20.43;10.27;;;;;;;9.89;62.26;98930.59;5083693;28;20040;-79
2023/03/02 15:25:08;;;;;;;23.08;8.90;;;;;;;10.01;62.13;98932.84;5075146;28;20058;-79
2023/03/02 15:27:36;;;;;;;17.45;8.90;;;;;;;10.20;60.87;98918.69;5079568;28;20052;-79
2023/03/02 15:30:02;;;;;;;17.15;9.50;;;;;;;10.29;60.83;98924.88;5088810;28;20131;-78
2023/03/02 15:32:29;;;;;;;21.33;9.98;;;;;;;10.35;61.01;98932.31;5075997;28;20048;-79
2023/03/02 15:34:56;;;;;;;20.38;8.35;;;;;;;9.98;61.41;98916.94;5073340;28;20499;-79
2023/03/02 15:37:22;;;;;;;18.35;9.25;;;;;;;10.01;61.63;98925.56;5077308;28;20633;-79
2023/03/02 15:39:53;;;;;;;21.83;9.77;;;;;;;10.04;61.95;98933.34;5086299;28;20056;-79
2023/03/02 15:42:20;;;;;;;22.77;9.98;;;;;;;9.98;62.06;98931.38;5078987;28;20052;-79
2023/03/02 15:44:48;;;;;;;20.25;10.73;;;;;;;10.02;62.31;98940.81;5083617;28;20059;-79
2023/03/02 15:47:14;;;;;;;18.98;10.45;;;;;;;10.07;62.43;98964.69;5087137;28;20219;-79
2023/03/02 15:49:41;;;;;;;19.38;10.32;;;;;;;10.00;61.75;98953.75;5080547;28;20048;-79
2023/03/02 15:52:08;;;;;;;23.75;11.45;;;;;;;9.77;62.43;98929.38;5089593;28;20290;-79
2023/03/02 15:54:34;;;;;;;18.30;9.48;;;;;;;9.85;62.44;98959.16;5082914;28;20078;-79
2023/03/02 15:57:01;;;;;;;20.90;9.27;;;;;;;9.66;62.30;98936.09;5091119;28;20040;-80
2023/03/02 15:59:29;;;;;;;19.55;10.50;;;;;;;9.65;63.37;98947.13;5083947;28;20063;-78
2023/03/02 16:01:58;;;;;;;21.95;10.15;;;;;;;9.78;62.84;98960.09;5081498;28;20048;-79
2023/03/02 16:04:25;;;;;;;20.15;10.23;;;;;;;9.55;63.36;98937.38;5076710;28;20054;-79
2023/03/02 16:06:53;;;;;;;19.08;9.90;;;;;;;9.65;63.42;98952.56;5076252;28;20071;-79
2023/03/02 16:09:20;;;;;;;22.23;9.55;;;;;;;9.46;64.30;98934.94;5071041;28;20415;-79
2023/03/02 16:11:48;;;;;;;18.80;9.20;;;;;;;9.51;64.13;98954.22;5072140;28;20048;-79
2023/03/02 16:14:15;;;;;;;22.23;9.73;;;;;;;9.39;63.65;98942.94;5075873;28;20052;-79
2023/03/02 16:16:41;;;;;;;21.25;9.90;;;;;;;9.25;63.65;98938.34;5073059;28;20142;-79
2023/03/02 16:19:11;;;;;;;22.40;9.77;;;;;;;9.19;63.69;98940.75;5071603;28;20048;-79
2023/03/02 16:21:38;;;;;;;40.97;18.20;;;;;;;9.15;64.61;98946.72;5070132;28;20048;-78
2023/03/02 16:24:05;;;;;;;23.77;11.65;;;;;;;9.09;65.32;98963.69;5075069;28;20082;-81
2023/03/02 16:26:33;;;;;;;29.70;11.02;;;;;;;9.03;64.95;98971.56;5079433;28;20102;-80
2023/03/02 16:29:00;;;;;;;24.58;10.77;;;;;;;8.96;65.48;98972.44;5091812;28;20052;-80
2023/03/02 16:31:31;;;;;;;26.23;10.68;;;;;;;8.80;66.17;98959.81;5091467;28;20055;-79
2023/03/02 16:33:57;;;;;;;19.50;9.55;;;;;;;8.75;66.16;98959.53;5089987;28;20400;-79
2023/03/02 16:36:27;;;;;;;23.00;10.50;;;;;;;8.76;66.65;98972.03;5090904;28;20076;-79
2023/03/02 16:38:53;;;;;;;20.73;10.83;;;;;;;8.49;67.22;98957.94;5089073;28;20044;-80
2023/03/02 16:41:22;;;;;;;24.13;10.25;;;;;;;8.55;67.05;98970.81;5084743;28;20291;-79
2023/03/02 16:43:51;;;;;;;20.17;10.45;;;;;;;8.44;67.93;98968.47;5081995;28;20044;-79
2023/03/02 16:46:19;;;;;;;20.25;9.65;;;;;;;8.38;67.39;98971.84;5090553;28;20048;-78
2023/03/02 16:48:46;;;;;;;23.27;10.93;;;;;;;8.29;68.38;98974.59;5090177;28;20077;-79
2023/03/02 16:51:13;;;;;;;20.13;10.43;;;;;;;8.25;68.58;98972.41;5090965;28;20048;-79
2023/03/02 16:53:41;;;;;;;21.55;10.35;;;;;;;8.11;68.64;98961.31;5088351;28;20058;-78
2023/03/02 16:56:09;;;;;;;22.25;10.52;;;;;;;8.22;69.03;98991.72;5083957;28;20041;-80
2023/03/02 16:58:38;;;;;;;23.50;10.95;;;;;;;7.80;70.41;98980.97;5072665;28;20079;-78
2023/03/02 17:01:05;;;;;;;28.63;11.55;;;;;;;7.86;71.09;99005.66;5069974;28;20056;-78
2023/03/02 17:03:32;;;;;;;21.95;12.00;;;;;;;7.62;71.88;98988.44;5068971;28;20226;-81
2023/03/02 17:05:58;;;;;;;29.17;11.40;;;;;;;7.66;72.12;98989.78;5070578;28;20052;-78
2023/03/02 17:08:25;;;;;;;22.83;12.55;;;;;;;7.56;72.27;99006.22;5085518;28;20058;-78
2023/03/02 17:10:53;;;;;;;30.80;13.43;;;;;;;7.35;73.76;99000.47;5089561;28;20048;-78
2023/03/02 17:13:20;;;;;;;25.85;12.95;;;;;;;7.33;73.92;98994.34;5083283;28;20040;-78
2023/03/02 17:15:46;;;;;;;25.58;10.90;;;;;;;7.31;74.44;99004.50;5088994;28;20434;-78
2023/03/02 17:18:13;;;;;;;24.48;11.52;;;;;;;7.41;74.57;99022.25;5082723;28;20428;-78
2023/03/02 17:20:40;;;;;;;26.33;13.80;;;;;;;7.25;75.16;99012.25;5087742;28;20051;-79
